Back to Top

Current Local METAR Station Weather Reports...

Local METAR Reports

Local METAR Reports

 

EGNJ - Humberside, United Kingdom
Distance from station: ESE 12mi, 20km
Updated: Mon, 21-Sep-2020 3:50pm BST
Clear
Clear
 Wind from WSW
Wind: WSW 9 mph , 15 km/h
Temperature: 23°C
Dew Point: 13°C
Humidity: 53%
Barometer: 1015 hPa
Summary: Clear
Visibility: greater than 7 miles , 10 km
2020/09/21 14:50 EGNJ 211450Z 25008KT 210V280 CAVOK 23/13 Q1015
EGXV - Leconfield (aut), United Kingdom
Distance from station: NNE 16mi, 26km
Updated: Mon, 21-Sep-2020 3:50pm BST
Clear
Clear
 Wind from W
Wind: W 10 mph , 17 km/h
Temperature: 22°C
Dew Point: 11°C
Humidity: 50%
Barometer: 1015 hPa
Clouds: Clear
Visibility: 6 miles , 10 km
2020/09/21 14:50 EGXV 211450Z AUTO 26009KT 9999 NCD 22/11 Q1015
 
EGCN - Doncaster Sheffi, United Kingdom
Distance from station: SW 20mi, 32km
Updated: Mon, 21-Sep-2020 3:50pm BST
Clear
Clear
 Wind from W
Wind: W 7 mph , 11 km/h
Temperature: 23°C
Dew Point: 10°C
Humidity: 44%
Barometer: 1016 hPa
Summary: Clear
Visibility: greater than 7 miles , 10 km
2020/09/21 14:50 EGCN 211450Z 27006KT 240V320 CAVOK 23/10 Q1016
EGXP - Scampton Raf, United Kingdom
Distance from station: S 25mi, 39km
Updated: Mon, 21-Sep-2020 2:50pm BST
Clear
Clear
 Wind from WSW
Wind: WSW 8 mph , 13 km/h
Temperature: 22°C
Dew Point: 13°C
Humidity: 57%
Barometer: 1016 hPa
Clouds: Clear
Visibility: 6 miles , 10 km
2020/09/21 13:50 EGXP 211350Z AUTO 24007KT 9999 // NCD 22/13 Q1016
 
EGXW - Waddington Raf, United Kingdom
Distance from station: S 33mi, 53km
Updated: Mon, 21-Sep-2020 3:50pm BST
Clear
Clear
 Wind from WSW
Wind: WSW 9 mph , 15 km/h
Temperature: 22°C
Dew Point: 13°C
Humidity: 57%
Barometer: 1015 hPa
Summary: Clear
Visibility: greater than 7 miles , 10 km
2020/09/21 14:50 EGXW 211450Z 25008KT CAVOK 22/13 Q1015 NOSIG RMK BLU BLU
EGXS - Donna Nook Raf, United Kingdom
Distance from station: ESE 33mi, 54km
Updated: Mon, 21-Sep-2020 3:50pm BST
Clear
Clear
 Wind from SSW
Wind: SSW 9 mph , 15 km/h
Temperature: 22°C
Dew Point: 13°C
Humidity: 57%
Barometer: 1015 hPa
Summary: Clear
Visibility: greater than 7 miles , 10 km
2020/09/21 14:50 EGXS 211450Z 21008KT CAVOK 22/13 Q1015 BLU
 
EGXU - Linton-On-Ouse R, United Kingdom
Distance from station: NW 38mi, 61km
Updated: Mon, 21-Sep-2020 3:50pm BST
Clear
Clear
 Wind from WSW
Wind: WSW 12 mph , 19 km/h
Temperature: 21°C
Dew Point: 13°C
Humidity: 60%
Barometer: 1015 hPa
Summary: Clear
Visibility: greater than 7 miles , 10 km
2020/09/21 14:50 EGXU 211450Z 25010KT CAVOK 21/13 Q1015 RMK BLU
EGXC - Coningsby Raf, United Kingdom
Distance from station: SSE 42mi, 68km
Updated: Mon, 21-Sep-2020 3:50pm BST
Clear
Clear
 Wind from W
Wind: W 7 mph , 11 km/h
Temperature: 23°C
Dew Point: 12°C
Humidity: 50%
Barometer: 1015 hPa
Summary: Clear
Visibility: greater than 7 miles , 10 km
2020/09/21 14:50 EGXC 211450Z 26006KT CAVOK 23/12 Q1015 NOSIG RMK BLU BLU
 
EGYD - Cranwell Raf, United Kingdom
Distance from station: S 43mi, 69km
Updated: Mon, 21-Sep-2020 3:50pm BST
Clear
Clear
 Wind from W
Wind: W 10 mph , 17 km/h
Temperature: 22°C
Dew Point: 13°C
Humidity: 57%
Barometer: 1016 hPa
Summary: Clear
Visibility: greater than 7 miles , 10 km
2020/09/21 14:50 EGYD 211450Z 26009KT CAVOK 22/13 Q1016 NOSIG RMK BLU BLU
EGNM - Leeds And Bradfo, United Kingdom
Distance from station: WNW 44mi, 71km
Updated: Mon, 21-Sep-2020 3:50pm BST
Clear
Clear
 Wind from W
Wind: W 14 mph , 22 km/h
Temperature: 19°C
Dew Point: 12°C
Humidity: 64%
Barometer: 1016 hPa
Summary: Clear
Visibility: greater than 7 miles , 10 km
2020/09/21 14:50 EGNM 211450Z 26012KT CAVOK 19/12 Q1016
 
EGXZ - Topcliffe Raf, United Kingdom
Distance from station: NW 49mi, 79km
Updated: Mon, 21-Sep-2020 3:50pm BST
Clear
Clear
 Wind from WSW
Wind: WSW 10 mph , 17 km/h
Temperature: 22°C
Dew Point: 10°C
Humidity: 47%
Barometer: 1015 hPa
Clouds: Clear
Visibility: 6 miles , 10 km
2020/09/21 14:50 EGXZ 211450Z AUTO 25009KT 9999 NCD 22/10 Q1015
EGXE - Leeming Raf, United Kingdom
Distance from station: NW 57mi, 92km
Updated: Mon, 21-Sep-2020 3:50pm BST
Clear
Clear
 Wind from WSW
Wind: WSW 9 mph , 15 km/h
Temperature: 21°C
Dew Point: 12°C
Humidity: 57%
Barometer: 1015 hPa
Summary: Clear
Visibility: greater than 7 miles , 10 km
2020/09/21 14:50 EGXE 211450Z 25008KT CAVOK 21/12 Q1015 NOSIG RMK BLU BLU
 
EGYH - Holbeach (aut), United Kingdom
Distance from station: SSE 63mi, 101km
Updated: Mon, 21-Sep-2020 2:50pm BST
Clear
Clear
 Wind from WSW
Wind: WSW 7 mph , 11 km/h
Temperature: 22°C
Dew Point: 13°C
Humidity: 57%
Barometer: 1016 hPa
Summary: Clear
Visibility: greater than 7 miles , 10 km
2020/09/21 13:50 EGYH 211350Z 25006KT CAVOK 22/13 Q1016 RMK BLU
EGNX - East Midlands, United Kingdom
Distance from station: SSW 65mi, 104km
Updated: Mon, 21-Sep-2020 3:50pm BST
Clear
Clear
 Wind from WSW
Wind: WSW 7 mph , 11 km/h
Temperature: 21°C
Dew Point: 13°C
Humidity: 60%
Barometer: 1016 hPa
Summary: Clear
Visibility: greater than 7 miles , 10 km
2020/09/21 14:50 EGNX 211450Z 25006KT 210V280 CAVOK 21/13 Q1016
 
EGNV - Tees-Side, United Kingdom
Distance from station: NNW 68mi, 109km
Updated: Mon, 21-Sep-2020 3:50pm BST
Clear
Clear
 Wind from WSW
Wind: WSW 8 mph , 13 km/h
Temperature: 21°C
Dew Point: 11°C
Humidity: 53%
Barometer: 1015 hPa
Summary: Clear
Visibility: greater than 7 miles , 10 km
2020/09/21 14:50 EGNV 211450Z 24007KT CAVOK 21/11 Q1015
EGCC - Manchester Intl, United Kingdom
Distance from station: WSW 71mi, 114km
Updated: Mon, 21-Sep-2020 3:50pm BST
Clear
Clear
 Wind from WNW
Wind: WNW 6 mph , 9 km/h
Temperature: 20°C
Dew Point: 11°C
Humidity: 56%
Barometer: 1016 hPa
Clouds: Clear
Visibility: 6 miles , 10 km
2020/09/21 14:50 EGCC 211450Z AUTO 30005KT 9999 NCD 20/11 Q1016

Metar display script from Saratoga-Weather.org

Data updates at regular intervals.